sensor_id;sensor_type;location;lat;lon;timestamp;pressure;altitude;pressure_sealevel;temperature;humidity
23589;BME280;11972;48.078;11.876;2023-04-25T00:02:10;94772.44;;;4.51;100.00
23589;BME280;11972;48.078;11.876;2023-04-25T00:06:10;94772.13;;;4.62;100.00
23589;BME280;11972;48.078;11.876;2023-04-25T00:10:11;94771.31;;;4.70;100.00
23589;BME280;11972;48.078;11.876;2023-04-25T00:14:11;94762.47;;;4.79;100.00
23589;BME280;11972;48.078;11.876;2023-04-25T00:18:12;94761.47;;;4.88;100.00
23589;BME280;11972;48.078;11.876;2023-04-25T00:22:12;94756.88;;;4.98;100.00
23589;BME280;11972;48.078;11.876;2023-04-25T00:26:13;94757.50;;;5.09;100.00
23589;BME280;11972;48.078;11.876;2023-04-25T00:30:14;94745.06;;;5.19;100.00
23589;BME280;11972;48.078;11.876;2023-04-25T00:34:14;94748.16;;;5.22;100.00
23589;BME280;11972;48.078;11.876;2023-04-25T00:38:14;94756.81;;;5.31;100.00
23589;BME280;11972;48.078;11.876;2023-04-25T00:42:15;94761.63;;;5.51;100.00
23589;BME280;11972;48.078;11.876;2023-04-25T00:46:16;94754.38;;;5.69;100.00
23589;BME280;11972;48.078;11.876;2023-04-25T00:50:16;94757.53;;;5.87;100.00
23589;BME280;11972;48.078;11.876;2023-04-25T00:54:17;94758.66;;;6.01;100.00
23589;BME280;11972;48.078;11.876;2023-04-25T00:58:18;94752.19;;;6.12;100.00
23589;BME280;11972;48.078;11.876;2023-04-25T01:02:19;94733.16;;;6.18;100.00
23589;BME280;11972;48.078;11.876;2023-04-25T01:06:20;94741.13;;;6.25;100.00
23589;BME280;11972;48.078;11.876;2023-04-25T01:10:22;94737.00;;;6.30;100.00
23589;BME280;11972;48.078;11.876;2023-04-25T01:14:23;94735.28;;;6.37;100.00
23589;BME280;11972;48.078;11.876;2023-04-25T01:18:23;94729.72;;;6.40;100.00
23589;BME280;11972;48.078;11.876;2023-04-25T01:22:24;94735.00;;;6.32;100.00
23589;BME280;11972;48.078;11.876;2023-04-25T01:26:24;94741.25;;;6.31;100.00
23589;BME280;11972;48.078;11.876;2023-04-25T01:30:28;94734.84;;;6.34;100.00
23589;BME280;11972;48.078;11.876;2023-04-25T01:34:29;94734.38;;;6.30;100.00
23589;BME280;11972;48.078;11.876;2023-04-25T01:38:29;94724.78;;;6.22;100.00
23589;BME280;11972;48.078;11.876;2023-04-25T01:42:30;94724.16;;;6.12;100.00
23589;BME280;11972;48.078;11.876;2023-04-25T01:46:30;94724.69;;;6.08;100.00
23589;BME280;11972;48.078;11.876;2023-04-25T01:50:31;94726.50;;;6.07;100.00
23589;BME280;11972;48.078;11.876;2023-04-25T01:54:31;94727.03;;;6.03;100.00
23589;BME280;11972;48.078;11.876;2023-04-25T01:58:31;94729.38;;;5.89;100.00
23589;BME280;11972;48.078;11.876;2023-04-25T02:02:32;94723.25;;;5.66;100.00
23589;BME280;11972;48.078;11.876;2023-04-25T02:06:32;94726.78;;;5.50;100.00
23589;BME280;11972;48.078;11.876;2023-04-25T02:10:33;94727.25;;;5.54;100.00
23589;BME280;11972;48.078;11.876;2023-04-25T02:14:34;94727.53;;;5.59;100.00
23589;BME280;11972;48.078;11.876;2023-04-25T02:18:34;94721.22;;;5.45;100.00
23589;BME280;11972;48.078;11.876;2023-04-25T02:22:37;94723.13;;;5.20;100.00
23589;BME280;11972;48.078;11.876;2023-04-25T02:26:37;94730.06;;;4.96;100.00
23589;BME280;11972;48.078;11.876;2023-04-25T02:30:37;94721.59;;;4.70;100.00
23589;BME280;11972;48.078;11.876;2023-04-25T02:34:38;94721.44;;;4.47;100.00
23589;BME280;11972;48.078;11.876;2023-04-25T02:38:38;94728.16;;;4.33;100.00
23589;BME280;11972;48.078;11.876;2023-04-25T02:42:38;94722.44;;;4.30;100.00
23589;BME280;11972;48.078;11.876;2023-04-25T02:46:39;94718.50;;;4.34;100.00
23589;BME280;11972;48.078;11.876;2023-04-25T02:50:39;94715.72;;;4.43;100.00
23589;BME280;11972;48.078;11.876;2023-04-25T02:54:40;94708.53;;;4.54;100.00
23589;BME280;11972;48.078;11.876;2023-04-25T02:58:40;94706.56;;;4.56;100.00
23589;BME280;11972;48.078;11.876;2023-04-25T03:02:41;94711.78;;;4.64;100.00
23589;BME280;11972;48.078;11.876;2023-04-25T03:06:41;94696.88;;;4.81;100.00
23589;BME280;11972;48.078;11.876;2023-04-25T03:10:41;94688.34;;;4.95;100.00
23589;BME280;11972;48.078;11.876;2023-04-25T03:14:42;94702.84;;;5.14;100.00
23589;BME280;11972;48.078;11.876;2023-04-25T03:18:42;94698.03;;;5.34;100.00
23589;BME280;11972;48.078;11.876;2023-04-25T03:22:42;94704.66;;;5.53;100.00
23589;BME280;11972;48.078;11.876;2023-04-25T03:26:43;94707.69;;;5.72;100.00
23589;BME280;11972;48.078;11.876;2023-04-25T03:30:43;94689.06;;;5.90;100.00
23589;BME280;11972;48.078;11.876;2023-04-25T03:34:43;94704.72;;;6.07;100.00
23589;BME280;11972;48.078;11.876;2023-04-25T03:38:44;94708.16;;;6.30;100.00
23589;BME280;11972;48.078;11.876;2023-04-25T03:42:44;94722.78;;;6.25;100.00
23589;BME280;11972;48.078;11.876;2023-04-25T03:46:45;94726.25;;;5.94;100.00
23589;BME280;11972;48.078;11.876;2023-04-25T03:50:45;94740.94;;;5.72;100.00
23589;BME280;11972;48.078;11.876;2023-04-25T03:54:45;94734.69;;;5.34;100.00
23589;BME280;11972;48.078;11.876;2023-04-25T03:58:45;94712.38;;;5.07;100.00
23589;BME280;11972;48.078;11.876;2023-04-25T04:02:46;94702.88;;;4.97;100.00
23589;BME280;11972;48.078;11.876;2023-04-25T04:06:46;94700.44;;;4.96;100.00
23589;BME280;11972;48.078;11.876;2023-04-25T04:10:47;94698.00;;;4.94;100.00
23589;BME280;11972;48.078;11.876;2023-04-25T04:14:47;94708.47;;;4.94;100.00
23589;BME280;11972;48.078;11.876;2023-04-25T04:18:47;94707.19;;;4.90;100.00
23589;BME280;11972;48.078;11.876;2023-04-25T04:22:47;94706.22;;;4.83;100.00
23589;BME280;11972;48.078;11.876;2023-04-25T04:26:49;94701.63;;;4.77;100.00
23589;BME280;11972;48.078;11.876;2023-04-25T04:30:50;94693.31;;;4.82;100.00
23589;BME280;11972;48.078;11.876;2023-04-25T04:34:52;94685.09;;;4.85;100.00
23589;BME280;11972;48.078;11.876;2023-04-25T04:38:54;94696.72;;;4.90;100.00
23589;BME280;11972;48.078;11.876;2023-04-25T04:42:56;94692.78;;;4.94;100.00
23589;BME280;11972;48.078;11.876;2023-04-25T04:46:57;94697.00;;;5.04;100.00
23589;BME280;11972;48.078;11.876;2023-04-25T04:50:58;94702.38;;;5.10;100.00
23589;BME280;11972;48.078;11.876;2023-04-25T04:54:58;94700.56;;;5.19;100.00
23589;BME280;11972;48.078;11.876;2023-04-25T04:58:58;94713.25;;;5.30;100.00
23589;BME280;11972;48.078;11.876;2023-04-25T05:02:59;94719.16;;;5.32;100.00
23589;BME280;11972;48.078;11.876;2023-04-25T05:07:00;94720.28;;;5.38;100.00
23589;BME280;11972;48.078;11.876;2023-04-25T05:11:00;94715.66;;;5.48;100.00
23589;BME280;11972;48.078;11.876;2023-04-25T05:15:01;94701.25;;;5.52;100.00
23589;BME280;11972;48.078;11.876;2023-04-25T05:19:01;94684.19;;;5.56;100.00
23589;BME280;11972;48.078;11.876;2023-04-25T05:23:01;94684.63;;;5.68;100.00
23589;BME280;11972;48.078;11.876;2023-04-25T05:27:02;94686.84;;;5.79;100.00
23589;BME280;11972;48.078;11.876;2023-04-25T05:31:03;94685.13;;;5.94;100.00
23589;BME280;11972;48.078;11.876;2023-04-25T05:35:04;94691.88;;;6.12;100.00
23589;BME280;11972;48.078;11.876;2023-04-25T05:39:05;94685.25;;;6.24;100.00
23589;BME280;11972;48.078;11.876;2023-04-25T05:43:06;94679.13;;;6.32;100.00
23589;BME280;11972;48.078;11.876;2023-04-25T05:47:07;94677.53;;;6.45;100.00
23589;BME280;11972;48.078;11.876;2023-04-25T05:51:07;94682.44;;;6.49;100.00
23589;BME280;11972;48.078;11.876;2023-04-25T05:55:08;94682.53;;;6.55;100.00
23589;BME280;11972;48.078;11.876;2023-04-25T05:59:08;94691.50;;;6.61;100.00
23589;BME280;11972;48.078;11.876;2023-04-25T06:03:09;94697.69;;;6.68;100.00
23589;BME280;11972;48.078;11.876;2023-04-25T06:07:11;94679.94;;;6.70;100.00
23589;BME280;11972;48.078;11.876;2023-04-25T06:11:11;94690.53;;;6.77;100.00
23589;BME280;11972;48.078;11.876;2023-04-25T06:15:12;94691.84;;;6.95;100.00
23589;BME280;11972;48.078;11.876;2023-04-25T06:19:12;94689.47;;;7.30;100.00
23589;BME280;11972;48.078;11.876;2023-04-25T06:23:12;94700.66;;;7.68;100.00
23589;BME280;11972;48.078;11.876;2023-04-25T06:27:13;94689.97;;;7.70;100.00
23589;BME280;11972;48.078;11.876;2023-04-25T06:31:13;94686.94;;;7.73;100.00
23589;BME280;11972;48.078;11.876;2023-04-25T06:35:13;94688.88;;;8.01;100.00
23589;BME280;11972;48.078;11.876;2023-04-25T06:39:14;94692.78;;;8.26;100.00
23589;BME280;11972;48.078;11.876;2023-04-25T06:43:14;94695.25;;;7.91;100.00
23589;BME280;11972;48.078;11.876;2023-04-25T06:47:14;94694.72;;;7.45;100.00
23589;BME280;11972;48.078;11.876;2023-04-25T06:51:15;94689.38;;;7.38;100.00
23589;BME280;11972;48.078;11.876;2023-04-25T06:55:15;94684.84;;;7.32;100.00
23589;BME280;11972;48.078;11.876;2023-04-25T06:59:16;94685.84;;;7.31;100.00
23589;BME280;11972;48.078;11.876;2023-04-25T07:03:16;94682.50;;;7.37;100.00
23589;BME280;11972;48.078;11.876;2023-04-25T07:07:16;94682.88;;;7.34;100.00
23589;BME280;11972;48.078;11.876;2023-04-25T07:11:17;94680.50;;;7.39;100.00
23589;BME280;11972;48.078;11.876;2023-04-25T07:15:17;94697.91;;;7.77;100.00
23589;BME280;11972;48.078;11.876;2023-04-25T07:19:17;94710.16;;;7.84;100.00
23589;BME280;11972;48.078;11.876;2023-04-25T07:23:18;94693.19;;;7.87;100.00
23589;BME280;11972;48.078;11.876;2023-04-25T07:27:19;94694.47;;;7.91;100.00
23589;BME280;11972;48.078;11.876;2023-04-25T07:31:19;94699.06;;;8.47;100.00
23589;BME280;11972;48.078;11.876;2023-04-25T07:35:19;94690.00;;;8.77;100.00
23589;BME280;11972;48.078;11.876;2023-04-25T07:39:20;94679.22;;;9.00;100.00
23589;BME280;11972;48.078;11.876;2023-04-25T07:43:20;94672.75;;;9.37;100.00
23589;BME280;11972;48.078;11.876;2023-04-25T07:47:20;94678.31;;;9.62;100.00
23589;BME280;11972;48.078;11.876;2023-04-25T07:51:21;94676.38;;;9.78;100.00
23589;BME280;11972;48.078;11.876;2023-04-25T07:55:22;94673.06;;;9.62;100.00
23589;BME280;11972;48.078;11.876;2023-04-25T07:59:22;94669.84;;;9.67;100.00
23589;BME280;11972;48.078;11.876;2023-04-25T08:03:23;94672.91;;;9.77;100.00
23589;BME280;11972;48.078;11.876;2023-04-25T08:07:23;94678.03;;;9.85;100.00
23589;BME280;11972;48.078;11.876;2023-04-25T08:11:25;94675.50;;;9.64;100.00
23589;BME280;11972;48.078;11.876;2023-04-25T08:15:26;94683.38;;;9.51;100.00
23589;BME280;11972;48.078;11.876;2023-04-25T08:19:26;94673.47;;;9.59;100.00
23589;BME280;11972;48.078;11.876;2023-04-25T08:23:27;94680.31;;;9.54;100.00
23589;BME280;11972;48.078;11.876;2023-04-25T08:27:28;94678.41;;;9.82;100.00
23589;BME280;11972;48.078;11.876;2023-04-25T08:31:28;94663.09;;;10.12;100.00
23589;BME280;11972;48.078;11.876;2023-04-25T08:35:28;94660.28;;;10.40;100.00
23589;BME280;11972;48.078;11.876;2023-04-25T08:39:29;94670.25;;;10.52;100.00
23589;BME280;11972;48.078;11.876;2023-04-25T08:43:29;94665.59;;;10.67;100.00
23589;BME280;11972;48.078;11.876;2023-04-25T08:47:33;94665.44;;;11.53;100.00
23589;BME280;11972;48.078;11.876;2023-04-25T08:51:34;94674.09;;;11.80;100.00
23589;BME280;11972;48.078;11.876;2023-04-25T08:55:38;94666.75;;;11.89;100.00
23589;BME280;11972;48.078;11.876;2023-04-25T08:59:41;94665.75;;;11.77;100.00
23589;BME280;11972;48.078;11.876;2023-04-25T09:03:45;94677.63;;;11.61;100.00
23589;BME280;11972;48.078;11.876;2023-04-25T09:07:47;94667.78;;;11.81;100.00
23589;BME280;11972;48.078;11.876;2023-04-25T09:11:48;94671.09;;;11.70;100.00
23589;BME280;11972;48.078;11.876;2023-04-25T09:15:50;94666.44;;;11.59;100.00
23589;BME280;11972;48.078;11.876;2023-04-25T09:19:51;94677.19;;;11.71;100.00
23589;BME280;11972;48.078;11.876;2023-04-25T09:23:51;94667.13;;;11.92;100.00
23589;BME280;11972;48.078;11.876;2023-04-25T09:27:53;94662.88;;;11.91;100.00
23589;BME280;11972;48.078;11.876;2023-04-25T09:32:10;94670.78;;;12.30;100.00
23589;BME280;11972;48.078;11.876;2023-04-25T09:36:11;94669.13;;;12.92;100.00
23589;BME280;11972;48.078;11.876;2023-04-25T09:40:12;94673.38;;;13.18;100.00
23589;BME280;11972;48.078;11.876;2023-04-25T09:44:12;94684.75;;;12.75;100.00
23589;BME280;11972;48.078;11.876;2023-04-25T09:48:20;94683.22;;;12.61;100.00
23589;BME280;11972;48.078;11.876;2023-04-25T09:52:22;94666.47;;;13.17;100.00
23589;BME280;11972;48.078;11.876;2023-04-25T09:56:23;94659.56;;;13.34;100.00
23589;BME280;11972;48.078;11.876;2023-04-25T10:00:27;94678.16;;;12.84;100.00
23589;BME280;11972;48.078;11.876;2023-04-25T10:04:28;94689.94;;;12.32;100.00
23589;BME280;11972;48.078;11.876;2023-04-25T10:08:34;94682.59;;;11.31;100.00
23589;BME280;11972;48.078;11.876;2023-04-25T10:12:36;94686.31;;;10.83;100.00
23589;BME280;11972;48.078;11.876;2023-04-25T10:16:38;94689.97;;;10.69;100.00
23589;BME280;11972;48.078;11.876;2023-04-25T10:20:38;94683.47;;;10.91;100.00
23589;BME280;11972;48.078;11.876;2023-04-25T10:24:39;94676.25;;;11.45;100.00
23589;BME280;11972;48.078;11.876;2023-04-25T10:29:00;94669.53;;;12.39;100.00
23589;BME280;11972;48.078;11.876;2023-04-25T10:33:16;94661.56;;;13.57;100.00
23589;BME280;11972;48.078;11.876;2023-04-25T10:37:18;94656.88;;;14.08;100.00
23589;BME280;11972;48.078;11.876;2023-04-25T10:41:20;94647.09;;;14.20;100.00
23589;BME280;11972;48.078;11.876;2023-04-25T10:45:21;94651.53;;;14.80;100.00
23589;BME280;11972;48.078;11.876;2023-04-25T10:53:35;94651.38;;;14.21;100.00
23589;BME280;11972;48.078;11.876;2023-04-25T11:01:41;94663.56;;;14.82;100.00
23589;BME280;11972;48.078;11.876;2023-04-25T11:05:44;94663.22;;;15.14;100.00
23589;BME280;11972;48.078;11.876;2023-04-25T11:09:45;94655.56;;;14.71;100.00
23589;BME280;11972;48.078;11.876;2023-04-25T11:13:49;94684.47;;;13.52;100.00
23589;BME280;11972;48.078;11.876;2023-04-25T11:17:54;94739.09;;;11.50;100.00
23589;BME280;11972;48.078;11.876;2023-04-25T11:21:55;94753.91;;;9.90;100.00
23589;BME280;11972;48.078;11.876;2023-04-25T11:25:56;94755.03;;;7.68;100.00
23589;BME280;11972;48.078;11.876;2023-04-25T11:29:56;94790.59;;;6.59;100.00
23589;BME280;11972;48.078;11.876;2023-04-25T11:33:57;94768.16;;;6.25;100.00
23589;BME280;11972;48.078;11.876;2023-04-25T11:37:57;94763.19;;;6.38;100.00
23589;BME280;11972;48.078;11.876;2023-04-25T11:41:58;94768.47;;;6.76;100.00
23589;BME280;11972;48.078;11.876;2023-04-25T11:45:58;94780.06;;;7.34;100.00
23589;BME280;11972;48.078;11.876;2023-04-25T11:50:00;94799.69;;;7.97;100.00
23589;BME280;11972;48.078;11.876;2023-04-25T11:54:00;94819.91;;;8.12;100.00
23589;BME280;11972;48.078;11.876;2023-04-25T11:58:01;94810.78;;;7.78;100.00
23589;BME280;11972;48.078;11.876;2023-04-25T12:02:02;94819.84;;;7.61;100.00
23589;BME280;11972;48.078;11.876;2023-04-25T12:06:02;94814.75;;;7.44;100.00
23589;BME280;11972;48.078;11.876;2023-04-25T12:10:11;94825.38;;;7.66;100.00
23589;BME280;11972;48.078;11.876;2023-04-25T12:14:20;94832.00;;;7.91;100.00
23589;BME280;11972;48.078;11.876;2023-04-25T12:18:25;94819.25;;;8.10;100.00
23589;BME280;11972;48.078;11.876;2023-04-25T12:22:28;94825.50;;;8.24;100.00
23589;BME280;11972;48.078;11.876;2023-04-25T12:26:46;94822.44;;;8.20;100.00
23589;BME280;11972;48.078;11.876;2023-04-25T12:31:01;94830.88;;;8.01;100.00
23589;BME280;11972;48.078;11.876;2023-04-25T12:35:04;94824.72;;;7.93;100.00
23589;BME280;11972;48.078;11.876;2023-04-25T12:39:05;94821.44;;;8.06;100.00
23589;BME280;11972;48.078;11.876;2023-04-25T12:43:05;94830.78;;;8.09;100.00
23589;BME280;11972;48.078;11.876;2023-04-25T12:47:06;94822.69;;;8.25;100.00
23589;BME280;11972;48.078;11.876;2023-04-25T12:51:06;94831.47;;;8.47;100.00
23589;BME280;11972;48.078;11.876;2023-04-25T12:55:07;94830.66;;;8.47;100.00
23589;BME280;11972;48.078;11.876;2023-04-25T12:59:07;94831.03;;;8.43;100.00
23589;BME280;11972;48.078;11.876;2023-04-25T13:03:08;94830.53;;;8.76;100.00
23589;BME280;11972;48.078;11.876;2023-04-25T13:07:09;94837.59;;;8.90;100.00
23589;BME280;11972;48.078;11.876;2023-04-25T13:11:09;94828.41;;;9.08;100.00
23589;BME280;11972;48.078;11.876;2023-04-25T13:15:10;94837.41;;;9.13;100.00
23589;BME280;11972;48.078;11.876;2023-04-25T13:19:11;94834.47;;;9.02;100.00
23589;BME280;11972;48.078;11.876;2023-04-25T13:23:12;94843.34;;;9.01;100.00
23589;BME280;11972;48.078;11.876;2023-04-25T13:27:13;94855.13;;;8.62;100.00
23589;BME280;11972;48.078;11.876;2023-04-25T13:31:13;94850.91;;;8.31;100.00
23589;BME280;11972;48.078;11.876;2023-04-25T13:35:14;94865.88;;;8.16;100.00
23589;BME280;11972;48.078;11.876;2023-04-25T13:39:24;94871.16;;;7.86;100.00
23589;BME280;11972;48.078;11.876;2023-04-25T13:43:24;94860.25;;;7.60;100.00
23589;BME280;11972;48.078;11.876;2023-04-25T13:47:26;94864.44;;;7.69;100.00
23589;BME280;11972;48.078;11.876;2023-04-25T13:51:26;94869.84;;;7.53;100.00
23589;BME280;11972;48.078;11.876;2023-04-25T13:55:27;94878.22;;;7.18;100.00
23589;BME280;11972;48.078;11.876;2023-04-25T13:59:27;94881.03;;;6.94;100.00
23589;BME280;11972;48.078;11.876;2023-04-25T14:03:28;94890.78;;;7.08;100.00
23589;BME280;11972;48.078;11.876;2023-04-25T14:07:28;94896.91;;;7.01;100.00
23589;BME280;11972;48.078;11.876;2023-04-25T14:11:28;94893.28;;;7.02;100.00
23589;BME280;11972;48.078;11.876;2023-04-25T14:15:31;94904.44;;;7.04;100.00
23589;BME280;11972;48.078;11.876;2023-04-25T14:19:31;94919.88;;;6.99;100.00
23589;BME280;11972;48.078;11.876;2023-04-25T14:23:32;94901.59;;;6.82;100.00
23589;BME280;11972;48.078;11.876;2023-04-25T14:27:32;94907.50;;;7.07;100.00
23589;BME280;11972;48.078;11.876;2023-04-25T14:31:33;94905.56;;;6.78;100.00
23589;BME280;11972;48.078;11.876;2023-04-25T14:35:35;94918.31;;;6.58;100.00
23589;BME280;11972;48.078;11.876;2023-04-25T14:39:35;94922.88;;;6.64;100.00
23589;BME280;11972;48.078;11.876;2023-04-25T14:43:36;94917.13;;;6.69;100.00
23589;BME280;11972;48.078;11.876;2023-04-25T14:47:37;94925.13;;;6.76;100.00
23589;BME280;11972;48.078;11.876;2023-04-25T14:51:37;94935.09;;;6.49;100.00
23589;BME280;11972;48.078;11.876;2023-04-25T14:55:38;94930.22;;;6.46;100.00
23589;BME280;11972;48.078;11.876;2023-04-25T14:59:38;94940.56;;;6.39;100.00
23589;BME280;11972;48.078;11.876;2023-04-25T15:03:40;94933.72;;;6.30;100.00
23589;BME280;11972;48.078;11.876;2023-04-25T15:07:40;94932.88;;;6.38;100.00
23589;BME280;11972;48.078;11.876;2023-04-25T15:11:41;94937.06;;;6.78;100.00
23589;BME280;11972;48.078;11.876;2023-04-25T15:15:42;94943.94;;;7.33;100.00
23589;BME280;11972;48.078;11.876;2023-04-25T15:19:42;94946.13;;;7.44;100.00
23589;BME280;11972;48.078;11.876;2023-04-25T15:23:42;94947.53;;;7.32;100.00
23589;BME280;11972;48.078;11.876;2023-04-25T15:27:43;94953.13;;;7.52;100.00
23589;BME280;11972;48.078;11.876;2023-04-25T15:31:44;94962.34;;;7.48;100.00
23589;BME280;11972;48.078;11.876;2023-04-25T15:35:44;94955.06;;;7.35;100.00
23589;BME280;11972;48.078;11.876;2023-04-25T15:39:44;94960.31;;;7.35;100.00
23589;BME280;11972;48.078;11.876;2023-04-25T15:43:47;94958.88;;;7.33;100.00
23589;BME280;11972;48.078;11.876;2023-04-25T15:47:48;94959.09;;;7.46;100.00
23589;BME280;11972;48.078;11.876;2023-04-25T15:51:50;94967.69;;;7.40;100.00
23589;BME280;11972;48.078;11.876;2023-04-25T15:55:50;94969.44;;;7.47;100.00
23589;BME280;11972;48.078;11.876;2023-04-25T15:59:51;94971.38;;;7.54;100.00
23589;BME280;11972;48.078;11.876;2023-04-25T16:03:51;94986.31;;;7.30;100.00
23589;BME280;11972;48.078;11.876;2023-04-25T16:07:51;94979.19;;;7.16;100.00
23589;BME280;11972;48.078;11.876;2023-04-25T16:11:53;94996.69;;;7.01;100.00
23589;BME280;11972;48.078;11.876;2023-04-25T16:15:53;94994.44;;;6.89;100.00
23589;BME280;11972;48.078;11.876;2023-04-25T16:19:57;94988.59;;;6.79;100.00
23589;BME280;11972;48.078;11.876;2023-04-25T16:23:58;94984.97;;;6.80;100.00
23589;BME280;11972;48.078;11.876;2023-04-25T16:27:58;94988.88;;;6.84;100.00
23589;BME280;11972;48.078;11.876;2023-04-25T16:31:59;94994.81;;;6.78;100.00
23589;BME280;11972;48.078;11.876;2023-04-25T16:35:59;94988.97;;;6.68;100.00
23589;BME280;11972;48.078;11.876;2023-04-25T16:39:59;95003.47;;;6.47;100.00
23589;BME280;11972;48.078;11.876;2023-04-25T16:44:00;95022.59;;;6.09;100.00
23589;BME280;11972;48.078;11.876;2023-04-25T16:48:00;95021.75;;;6.08;100.00
23589;BME280;11972;48.078;11.876;2023-04-25T16:52:00;95015.66;;;6.24;100.00
23589;BME280;11972;48.078;11.876;2023-04-25T16:56:01;95017.94;;;6.35;100.00
23589;BME280;11972;48.078;11.876;2023-04-25T17:00:02;95023.81;;;6.45;100.00
23589;BME280;11972;48.078;11.876;2023-04-25T17:04:03;95032.34;;;6.47;100.00
23589;BME280;11972;48.078;11.876;2023-04-25T17:08:03;95037.59;;;6.47;100.00
23589;BME280;11972;48.078;11.876;2023-04-25T17:12:04;95032.47;;;6.54;100.00
23589;BME280;11972;48.078;11.876;2023-04-25T17:16:04;95033.63;;;6.60;100.00
23589;BME280;11972;48.078;11.876;2023-04-25T17:20:05;95041.50;;;6.60;100.00
23589;BME280;11972;48.078;11.876;2023-04-25T17:24:07;95044.25;;;6.58;100.00
23589;BME280;11972;48.078;11.876;2023-04-25T17:28:11;95055.63;;;6.51;100.00
23589;BME280;11972;48.078;11.876;2023-04-25T17:32:12;95063.50;;;6.42;100.00
23589;BME280;11972;48.078;11.876;2023-04-25T17:36:12;95069.72;;;6.41;100.00
23589;BME280;11972;48.078;11.876;2023-04-25T17:40:12;95063.84;;;6.39;100.00
23589;BME280;11972;48.078;11.876;2023-04-25T17:44:13;95072.84;;;6.37;100.00
23589;BME280;11972;48.078;11.876;2023-04-25T17:48:13;95080.22;;;6.33;100.00
23589;BME280;11972;48.078;11.876;2023-04-25T17:52:13;95077.31;;;6.28;100.00
23589;BME280;11972;48.078;11.876;2023-04-25T17:56:14;95088.78;;;6.27;100.00
23589;BME280;11972;48.078;11.876;2023-04-25T18:00:15;95084.84;;;6.23;100.00
23589;BME280;11972;48.078;11.876;2023-04-25T18:04:17;95091.41;;;6.19;100.00
23589;BME280;11972;48.078;11.876;2023-04-25T18:08:18;95096.16;;;6.15;100.00
23589;BME280;11972;48.078;11.876;2023-04-25T18:12:19;95096.66;;;6.11;100.00
23589;BME280;11972;48.078;11.876;2023-04-25T18:16:19;95112.91;;;6.06;100.00
23589;BME280;11972;48.078;11.876;2023-04-25T18:20:20;95114.69;;;5.97;100.00
23589;BME280;11972;48.078;11.876;2023-04-25T18:24:22;95116.66;;;5.95;100.00
23589;BME280;11972;48.078;11.876;2023-04-25T18:28:23;95122.53;;;5.89;100.00
23589;BME280;11972;48.078;11.876;2023-04-25T18:32:23;95134.97;;;5.87;100.00
23589;BME280;11972;48.078;11.876;2023-04-25T18:36:24;95133.50;;;5.85;100.00
23589;BME280;11972;48.078;11.876;2023-04-25T18:40:26;95144.13;;;5.83;100.00
23589;BME280;11972;48.078;11.876;2023-04-25T18:44:26;95150.69;;;5.87;100.00
23589;BME280;11972;48.078;11.876;2023-04-25T18:48:27;95169.25;;;5.94;100.00
23589;BME280;11972;48.078;11.876;2023-04-25T18:52:27;95178.13;;;6.01;100.00
23589;BME280;11972;48.078;11.876;2023-04-25T18:56:28;95188.25;;;6.04;100.00
23589;BME280;11972;48.078;11.876;2023-04-25T19:00:28;95201.78;;;5.83;100.00
23589;BME280;11972;48.078;11.876;2023-04-25T19:04:29;95212.22;;;5.59;100.00
23589;BME280;11972;48.078;11.876;2023-04-25T19:08:29;95200.69;;;5.35;100.00
23589;BME280;11972;48.078;11.876;2023-04-25T19:12:30;95208.81;;;5.24;100.00
23589;BME280;11972;48.078;11.876;2023-04-25T19:16:32;95210.41;;;5.17;100.00
23589;BME280;11972;48.078;11.876;2023-04-25T19:20:37;95211.56;;;5.14;100.00
23589;BME280;11972;48.078;11.876;2023-04-25T19:24:38;95215.94;;;5.14;100.00
23589;BME280;11972;48.078;11.876;2023-04-25T19:28:42;95214.28;;;5.05;100.00
23589;BME280;11972;48.078;11.876;2023-04-25T19:32:43;95212.91;;;4.92;100.00
23589;BME280;11972;48.078;11.876;2023-04-25T19:36:44;95209.94;;;4.87;100.00
23589;BME280;11972;48.078;11.876;2023-04-25T19:40:45;95216.50;;;4.91;100.00
23589;BME280;11972;48.078;11.876;2023-04-25T19:44:45;95214.22;;;4.96;100.00
23589;BME280;11972;48.078;11.876;2023-04-25T19:48:45;95214.53;;;4.93;100.00
23589;BME280;11972;48.078;11.876;2023-04-25T19:52:46;95209.13;;;4.87;100.00
23589;BME280;11972;48.078;11.876;2023-04-25T19:56:46;95222.03;;;4.88;100.00
23589;BME280;11972;48.078;11.876;2023-04-25T20:00:47;95213.53;;;4.86;100.00
23589;BME280;11972;48.078;11.876;2023-04-25T20:04:48;95217.31;;;4.92;100.00
23589;BME280;11972;48.078;11.876;2023-04-25T20:08:52;95221.94;;;4.98;100.00
23589;BME280;11972;48.078;11.876;2023-04-25T20:12:52;95217.84;;;4.95;100.00
23589;BME280;11972;48.078;11.876;2023-04-25T20:16:53;95229.28;;;4.94;100.00
23589;BME280;11972;48.078;11.876;2023-04-25T20:20:53;95223.72;;;4.97;100.00
23589;BME280;11972;48.078;11.876;2023-04-25T20:24:55;95222.09;;;4.96;100.00
23589;BME280;11972;48.078;11.876;2023-04-25T20:28:55;95226.19;;;4.99;100.00
23589;BME280;11972;48.078;11.876;2023-04-25T20:32:59;95226.03;;;5.01;100.00
23589;BME280;11972;48.078;11.876;2023-04-25T20:36:59;95217.88;;;5.04;100.00
23589;BME280;11972;48.078;11.876;2023-04-25T20:41:01;95213.47;;;5.04;100.00
23589;BME280;11972;48.078;11.876;2023-04-25T20:45:02;95211.34;;;5.08;100.00
23589;BME280;11972;48.078;11.876;2023-04-25T20:49:06;95210.63;;;4.97;100.00
23589;BME280;11972;48.078;11.876;2023-04-25T20:53:07;95210.28;;;4.92;100.00
23589;BME280;11972;48.078;11.876;2023-04-25T20:57:07;95215.97;;;4.88;100.00
23589;BME280;11972;48.078;11.876;2023-04-25T21:01:07;95224.59;;;4.80;100.00
23589;BME280;11972;48.078;11.876;2023-04-25T21:05:09;95226.03;;;4.75;100.00